Time;durP1;ratioP1;P1;durP2;ratioP2;P2;SDS_P1;SDS_P2;PMS_P1;PMS_P2;Temp;Humidity;BMP_temperature;BMP_pressure;BME280_temperature;BME280_humidity;BME280_pressure;Samples;Min_cycle;Max_cycle;Signal;HPM_P1;HPM_P2
2023/04/14 15:15:33;;;;;;;;;0.00;0.00;;;;;;;;5115010;27;1372967;-66
2023/04/14 15:17:59;;;;;;;;;0.00;0.00;;;;;;;;5148204;27;8786;-66
2023/04/14 15:20:24;;;;;;;;;1.00;0.00;;;;;;;;5117708;27;9697;-67
2023/04/14 15:22:49;;;;;;;;;0.00;0.00;;;;;;;;5109482;27;8811;-66
2023/04/14 15:25:15;;;;;;;;;0.00;0.00;;;;;;;;5127290;27;8792;-66
2023/04/14 15:27:40;;;;;;;;;0.50;0.00;;;;;;;;5127383;27;8807;-67
2023/04/14 15:30:06;;;;;;;;;1.00;0.00;;;;;;;;5126404;27;8831;-66
2023/04/14 15:32:31;;;;;;;;;0.00;0.00;;;;;;;;5108910;27;8792;-66
2023/04/14 15:34:57;;;;;;;;;0.00;0.00;;;;;;;;5127049;27;11370;-67
2023/04/14 15:37:22;;;;;;;;;0.00;0.00;;;;;;;;5127199;27;8887;-64
2023/04/14 15:39:47;;;;;;;;;0.00;0.00;;;;;;;;5128384;27;8808;-66
2023/04/14 15:42:13;;;;;;;;;0.00;0.00;;;;;;;;5147624;27;8781;-66
2023/04/14 15:44:38;;;;;;;;;0.00;0.00;;;;;;;;5147646;27;8801;-66
2023/04/14 15:47:03;;;;;;;;;0.25;0.00;;;;;;;;5147571;27;8885;-66
2023/04/14 15:49:29;;;;;;;;;0.00;0.00;;;;;;;;5144036;27;8800;-68
2023/04/14 15:51:56;;;;;;;;;0.00;0.00;;;;;;;;5126678;27;8808;-66
2023/04/14 15:54:21;;;;;;;;;0.00;0.00;;;;;;;;5126632;27;9561;-66
2023/04/14 15:56:49;;;;;;;;;0.00;0.00;;;;;;;;5126783;27;11392;-66
2023/04/14 15:59:15;;;;;;;;;2.00;0.00;;;;;;;;5126774;27;8898;-66
2023/04/14 16:01:40;;;;;;;;;0.75;0.00;;;;;;;;5124934;27;11358;-66
2023/04/14 16:04:05;;;;;;;;;1.00;0.00;;;;;;;;5126655;27;8811;-66
2023/04/14 16:06:31;;;;;;;;;0.00;0.00;;;;;;;;5126613;27;8872;-66
2023/04/14 16:08:56;;;;;;;;;1.50;0.00;;;;;;;;5126439;27;8763;-66
2023/04/14 16:11:22;;;;;;;;;1.25;0.25;;;;;;;;5124594;27;8898;-68
2023/04/14 16:13:48;;;;;;;;;1.50;1.00;;;;;;;;5112758;27;9790;-67
2023/04/14 16:16:15;;;;;;;;;0.00;0.00;;;;;;;;5117357;27;11391;-66
2023/04/14 16:18:41;;;;;;;;;0.00;0.00;;;;;;;;5124363;27;9953;-66
2023/04/14 16:21:06;;;;;;;;;0.00;0.00;;;;;;;;5107409;28;11386;-66
2023/04/14 16:23:32;;;;;;;;;0.00;0.00;;;;;;;;5105646;28;11407;-71
2023/04/14 16:25:57;;;;;;;;;0.50;0.50;;;;;;;;5096930;28;8792;-67
2023/04/14 16:28:22;;;;;;;;;3.50;0.00;;;;;;;;5091878;28;8788;-69
2023/04/14 16:30:49;;;;;;;;;1.00;1.00;;;;;;;;5090499;28;8830;-74
2023/04/14 16:33:14;;;;;;;;;2.00;1.25;;;;;;;;5092070;28;8816;-74
2023/04/14 16:35:40;;;;;;;;;1.00;1.00;;;;;;;;5091748;28;11556;-68
2023/04/14 16:38:07;;;;;;;;;0.25;0.00;;;;;;;;5091783;28;8815;-68
2023/04/14 16:40:33;;;;;;;;;0.50;0.50;;;;;;;;5091831;28;8807;-67
2023/04/14 16:42:58;;;;;;;;;0.00;0.00;;;;;;;;5091290;28;11394;-71
2023/04/14 16:45:24;;;;;;;;;0.00;0.00;;;;;;;;5106706;28;11473;-68
2023/04/14 16:47:50;;;;;;;;;0.25;0.00;;;;;;;;5111788;28;8797;-68
2023/04/14 16:50:16;;;;;;;;;3.25;0.00;;;;;;;;5111946;28;8888;-71
2023/04/14 16:52:41;;;;;;;;;1.00;1.00;;;;;;;;5111656;28;8874;-69
2023/04/14 16:55:07;;;;;;;;;1.50;0.00;;;;;;;;5102452;28;11458;-66
2023/04/14 16:57:32;;;;;;;;;2.00;0.00;;;;;;;;5091503;28;8834;-68
2023/04/14 16:59:57;;;;;;;;;1.50;0.00;;;;;;;;5089017;28;8819;-68
2023/04/14 17:02:23;;;;;;;;;1.00;0.00;;;;;;;;5088920;28;8792;-67
2023/04/14 17:04:49;;;;;;;;;0.50;0.50;;;;;;;;5090818;28;9514;-67
2023/04/14 17:07:14;;;;;;;;;1.00;0.00;;;;;;;;5091119;28;8795;-67
2023/04/14 17:09:39;;;;;;;;;0.00;0.00;;;;;;;;5091605;28;8795;-67
2023/04/14 17:12:05;;;;;;;;;1.50;0.00;;;;;;;;5089706;28;8803;-67
2023/04/14 17:14:30;;;;;;;;;0.00;0.00;;;;;;;;5090032;28;8855;-65
2023/04/14 17:16:55;;;;;;;;;1.00;1.00;;;;;;;;5108733;28;9562;-66
2023/04/14 17:19:20;;;;;;;;;2.00;0.00;;;;;;;;5111984;28;8797;-66
2023/04/14 17:21:48;;;;;;;;;0.00;0.00;;;;;;;;5096662;28;8880;-66
2023/04/14 17:24:13;;;;;;;;;1.00;0.00;;;;;;;;5090928;28;8957;-67
2023/04/14 17:26:38;;;;;;;;;0.00;0.00;;;;;;;;5090753;28;11409;-68
2023/04/14 17:29:04;;;;;;;;;1.75;0.00;;;;;;;;5090911;28;8822;-66
2023/04/14 17:31:29;;;;;;;;;0.50;0.00;;;;;;;;5088591;28;8831;-65
2023/04/14 17:33:55;;;;;;;;;0.00;0.00;;;;;;;;5090739;28;8946;-66
2023/04/14 17:36:20;;;;;;;;;0.00;0.00;;;;;;;;5097860;28;8860;-66
2023/04/14 17:38:46;;;;;;;;;0.75;0.75;;;;;;;;5101911;28;8878;-66
2023/04/14 17:41:11;;;;;;;;;1.25;1.25;;;;;;;;5089351;28;8851;-67
2023/04/14 17:43:38;;;;;;;;;3.00;0.00;;;;;;;;5089314;28;8815;-66
2023/04/14 17:46:04;;;;;;;;;1.75;0.75;;;;;;;;5097505;28;8817;-67
2023/04/14 17:48:30;;;;;;;;;4.75;2.00;;;;;;;;5108091;28;11442;-68
2023/04/14 17:50:55;;;;;;;;;1.25;0.75;;;;;;;;5106150;28;11432;-68
2023/04/14 17:53:21;;;;;;;;;11.50;5.50;;;;;;;;5106783;28;11463;-68
2023/04/14 17:55:46;;;;;;;;;1.25;1.00;;;;;;;;5108172;28;9535;-68
2023/04/14 17:58:12;;;;;;;;;5.25;0.75;;;;;;;;5108344;28;8805;-69
2023/04/14 18:00:38;;;;;;;;;3.00;0.00;;;;;;;;5124423;27;8820;-67
2023/04/14 18:03:03;;;;;;;;;0.00;0.00;;;;;;;;5107769;27;8847;-68
2023/04/14 18:05:28;;;;;;;;;1.00;1.00;;;;;;;;5106707;28;8805;-67
2023/04/14 18:07:54;;;;;;;;;1.00;1.00;;;;;;;;5110036;28;8785;-67
2023/04/14 18:10:20;;;;;;;;;2.25;1.00;;;;;;;;5110300;28;9119;-67
2023/04/14 18:12:45;;;;;;;;;2.00;1.00;;;;;;;;5110154;27;8816;-67
2023/04/14 18:15:14;;;;;;;;;0.25;0.25;;;;;;;;5106920;28;8829;-68
2023/04/14 18:17:40;;;;;;;;;4.25;1.50;;;;;;;;5109964;28;8824;-68
2023/04/14 18:20:05;;;;;;;;;1.25;1.00;;;;;;;;5110106;28;11419;-68
2023/04/14 18:22:31;;;;;;;;;2.00;1.00;;;;;;;;5110143;28;9500;-72
2023/04/14 18:24:56;;;;;;;;;0.00;0.00;;;;;;;;5108617;28;8805;-69
2023/04/14 18:27:24;;;;;;;;;0.50;0.25;;;;;;;;5110022;28;8958;-71
2023/04/14 18:29:51;;;;;;;;;1.50;0.25;;;;;;;;5109759;28;8955;-74
2023/04/14 18:32:17;;;;;;;;;2.75;1.00;;;;;;;;5109906;27;11386;-69
2023/04/14 18:34:42;;;;;;;;;1.50;1.00;;;;;;;;5109893;28;12130;-70
2023/04/14 18:37:07;;;;;;;;;3.00;1.00;;;;;;;;5110201;28;8801;-71
2023/04/14 18:39:34;;;;;;;;;5.25;1.00;;;;;;;;5109699;28;8781;-68
2023/04/14 18:42:00;;;;;;;;;5.00;1.25;;;;;;;;5109925;28;8773;-68
2023/04/14 18:44:25;;;;;;;;;2.00;1.00;;;;;;;;5109867;28;12228;-70
2023/04/14 18:46:50;;;;;;;;;3.00;1.25;;;;;;;;5091950;28;8823;-78
2023/04/14 18:49:17;;;;;;;;;3.25;2.00;;;;;;;;5088294;28;9420;-72
2023/04/14 18:51:43;;;;;;;;;0.00;0.00;;;;;;;;5089471;28;8837;-72
2023/04/14 18:54:09;;;;;;;;;0.00;0.00;;;;;;;;5089175;28;11467;-71
2023/04/14 18:56:34;;;;;;;;;3.50;0.50;;;;;;;;5085726;28;8824;-70
2023/04/14 18:59:00;;;;;;;;;1.00;0.00;;;;;;;;5089455;28;8808;-69
2023/04/14 19:01:26;;;;;;;;;3.00;2.00;;;;;;;;5100768;28;8833;-69
2023/04/14 19:03:53;;;;;;;;;1.50;0.00;;;;;;;;5109226;28;8793;-69
2023/04/14 19:06:18;;;;;;;;;1.25;0.00;;;;;;;;5098922;28;8911;-68
2023/04/14 19:08:43;;;;;;;;;18.50;15.50;;;;;;;;5104688;28;12366;-69
2023/04/14 19:11:09;;;;;;;;;1.75;0.50;;;;;;;;5087519;28;8811;-71
2023/04/14 19:13:34;;;;;;;;;14.75;10.00;;;;;;;;5088782;28;8877;-71
2023/04/14 19:16:12;;;;;;;;;5.75;2.50;;;;;;;;5089959;28;8951;-72
2023/04/14 19:18:38;;;;;;;;;3.50;1.25;;;;;;;;5088828;28;8791;-71
2023/04/14 19:21:04;;;;;;;;;2.75;2.00;;;;;;;;5088663;28;11590;-69
2023/04/14 19:23:29;;;;;;;;;5.00;3.00;;;;;;;;5087307;28;11480;-69
2023/04/14 19:25:54;;;;;;;;;0.50;0.50;;;;;;;;5087623;28;9566;-72
2023/04/14 19:28:20;;;;;;;;;0.50;0.00;;;;;;;;5093905;28;8847;-70
2023/04/14 19:30:46;;;;;;;;;0.00;0.00;;;;;;;;5100209;28;8848;-71
2023/04/14 19:33:11;;;;;;;;;3.00;0.00;;;;;;;;5094179;28;8916;-70
2023/04/14 19:35:37;;;;;;;;;0.00;0.00;;;;;;;;5089129;28;8802;-71
2023/04/14 19:38:03;;;;;;;;;3.00;0.00;;;;;;;;5089038;28;8805;-71
2023/04/14 19:40:30;;;;;;;;;3.00;0.00;;;;;;;;5088962;28;8860;-70
2023/04/14 19:42:56;;;;;;;;;5.25;1.50;;;;;;;;5088692;28;11552;-69
2023/04/14 19:45:21;;;;;;;;;1.00;1.00;;;;;;;;5087787;28;12354;-68
2023/04/14 19:47:47;;;;;;;;;0.00;0.00;;;;;;;;5088791;28;9417;-68
2023/04/14 19:50:12;;;;;;;;;4.50;4.50;;;;;;;;5087411;28;9562;-70
2023/04/14 19:52:37;;;;;;;;;0.00;0.00;;;;;;;;5088749;28;8842;-69
2023/04/14 19:55:04;;;;;;;;;1.00;1.00;;;;;;;;5088746;28;8835;-68
2023/04/14 19:57:29;;;;;;;;;0.00;0.00;;;;;;;;5088901;28;8822;-72
2023/04/14 19:59:54;;;;;;;;;0.00;0.00;;;;;;;;5088213;28;11426;-71
2023/04/14 20:02:20;;;;;;;;;1.50;1.00;;;;;;;;5092386;28;8791;-69
2023/04/14 20:04:45;;;;;;;;;4.50;0.50;;;;;;;;5092550;28;8824;-69
2023/04/14 20:07:10;;;;;;;;;1.25;1.25;;;;;;;;5092367;28;8969;-68
2023/04/14 20:09:36;;;;;;;;;0.00;0.00;;;;;;;;5092547;28;8807;-69
2023/04/14 20:12:01;;;;;;;;;3.50;1.75;;;;;;;;5092769;28;8796;-68
2023/04/14 20:14:26;;;;;;;;;1.00;1.00;;;;;;;;5091980;28;8819;-69
2023/04/14 20:16:53;;;;;;;;;5.00;1.00;;;;;;;;5108420;28;9581;-69
2023/04/14 20:19:19;;;;;;;;;2.00;1.00;;;;;;;;5111119;28;8824;-70
2023/04/14 20:21:45;;;;;;;;;1.00;1.00;;;;;;;;5094670;28;11477;-70
2023/04/14 20:24:10;;;;;;;;;0.00;0.00;;;;;;;;5096111;28;11557;-70
2023/04/14 20:26:41;;;;;;;;;1.00;1.00;;;;;;;;5107020;28;8785;-70
2023/04/14 20:29:06;;;;;;;;;1.75;1.00;;;;;;;;5112395;28;8809;-70
2023/04/14 20:31:31;;;;;;;;;1.75;1.00;;;;;;;;5098852;28;11448;-70
2023/04/14 20:33:57;;;;;;;;;1.75;0.00;;;;;;;;5091608;28;9027;-70
2023/04/14 20:36:22;;;;;;;;;1.00;0.50;;;;;;;;5091710;28;8911;-69
2023/04/14 20:38:47;;;;;;;;;0.25;0.25;;;;;;;;5091819;28;8827;-70
2023/04/14 20:41:15;;;;;;;;;1.25;0.00;;;;;;;;5091798;28;8788;-70
2023/04/14 20:43:42;;;;;;;;;0.25;0.25;;;;;;;;5090162;28;8840;-71
2023/04/14 20:46:07;;;;;;;;;1.50;0.00;;;;;;;;5102225;28;11601;-70
2023/04/14 20:48:33;;;;;;;;;0.50;0.50;;;;;;;;5111737;28;11534;-70
2023/04/14 20:50:59;;;;;;;;;0.00;0.00;;;;;;;;5110309;28;8805;-69
2023/04/14 20:53:27;;;;;;;;;1.75;0.00;;;;;;;;5110862;28;8909;-68
2023/04/14 20:55:52;;;;;;;;;2.00;0.00;;;;;;;;5111984;27;11436;-68
2023/04/14 20:58:18;;;;;;;;;0.00;0.00;;;;;;;;5111936;28;11455;-69
2023/04/14 21:00:43;;;;;;;;;0.00;0.00;;;;;;;;5111533;28;8820;-68
2023/04/14 21:03:08;;;;;;;;;1.00;0.00;;;;;;;;5110083;28;8847;-68
2023/04/14 21:05:34;;;;;;;;;2.00;1.00;;;;;;;;5106681;28;8817;-69
2023/04/14 21:07:59;;;;;;;;;3.00;2.00;;;;;;;;5111334;28;8809;-70
2023/04/14 21:10:25;;;;;;;;;8.25;2.00;;;;;;;;5110958;28;8785;-70
2023/04/14 21:12:50;;;;;;;;;0.00;0.00;;;;;;;;5111232;28;8809;-67
2023/04/14 21:15:15;;;;;;;;;2.00;1.00;;;;;;;;5110818;28;8836;-69
2023/04/14 21:17:41;;;;;;;;;1.00;0.00;;;;;;;;5111253;28;8865;-68
2023/04/14 21:20:06;;;;;;;;;2.00;2.00;;;;;;;;5111333;28;8896;-68
2023/04/14 21:22:32;;;;;;;;;0.00;0.00;;;;;;;;5111249;27;8801;-68
2023/04/14 21:24:57;;;;;;;;;2.75;1.50;;;;;;;;5109595;28;8825;-69
2023/04/14 21:27:22;;;;;;;;;2.50;1.00;;;;;;;;5111041;28;8813;-69
2023/04/14 21:29:48;;;;;;;;;3.50;1.75;;;;;;;;5110629;28;8870;-70
2023/04/14 21:32:13;;;;;;;;;1.50;1.00;;;;;;;;5110877;28;8809;-67
2023/04/14 21:34:39;;;;;;;;;4.25;2.00;;;;;;;;5110695;28;8821;-69
2023/04/14 21:37:05;;;;;;;;;2.00;0.00;;;;;;;;5110883;28;8978;-68
2023/04/14 21:39:32;;;;;;;;;0.25;0.25;;;;;;;;5110738;28;11414;-69
2023/04/14 21:42:00;;;;;;;;;3.50;0.75;;;;;;;;5110653;28;11424;-70
2023/04/14 21:44:26;;;;;;;;;1.00;0.50;;;;;;;;5109009;28;11553;-72
2023/04/14 21:46:52;;;;;;;;;0.50;0.00;;;;;;;;5110053;28;11437;-70
2023/04/14 21:49:17;;;;;;;;;1.75;1.00;;;;;;;;5110481;28;8816;-70
2023/04/14 21:51:43;;;;;;;;;1.00;1.00;;;;;;;;5109100;28;8793;-71
2023/04/14 21:54:12;;;;;;;;;1.50;1.00;;;;;;;;5110374;28;8824;-71
2023/04/14 21:56:37;;;;;;;;;3.50;1.00;;;;;;;;5110505;28;11411;-69
2023/04/14 21:59:03;;;;;;;;;1.50;0.50;;;;;;;;5110315;28;11581;-69
2023/04/14 22:01:30;;;;;;;;;8.25;7.00;;;;;;;;5110529;28;9545;-69
2023/04/14 22:03:55;;;;;;;;;1.75;1.00;;;;;;;;5110106;28;11458;-69
2023/04/14 22:06:20;;;;;;;;;2.00;2.00;;;;;;;;5109918;28;11425;-68
2023/04/14 22:08:45;;;;;;;;;1.75;1.00;;;;;;;;5110365;28;8846;-69
2023/04/14 22:11:11;;;;;;;;;0.75;0.00;;;;;;;;5110338;28;8919;-68
2023/04/14 22:13:36;;;;;;;;;0.75;0.75;;;;;;;;5110077;28;8986;-69
2023/04/14 22:16:02;;;;;;;;;0.00;0.00;;;;;;;;5110156;28;8821;-69
2023/04/14 22:18:29;;;;;;;;;2.00;1.00;;;;;;;;5108598;28;8851;-69
2023/04/14 22:20:55;;;;;;;;;1.00;0.00;;;;;;;;5109808;28;8789;-69
2023/04/14 22:23:21;;;;;;;;;1.00;1.00;;;;;;;;5108122;28;11556;-70
2023/04/14 22:25:46;;;;;;;;;1.00;1.00;;;;;;;;5110140;28;11426;-70
2023/04/14 22:28:12;;;;;;;;;2.50;2.00;;;;;;;;5109776;28;8820;-71
2023/04/14 22:30:37;;;;;;;;;1.75;1.75;;;;;;;;5108595;28;8829;-69
2023/04/14 22:33:02;;;;;;;;;1.00;1.00;;;;;;;;5110269;28;8809;-71
2023/04/14 22:35:28;;;;;;;;;3.00;2.00;;;;;;;;5108770;28;8825;-69
2023/04/14 22:37:54;;;;;;;;;1.00;1.00;;;;;;;;5109621;28;8825;-68
2023/04/14 22:40:19;;;;;;;;;1.25;1.25;;;;;;;;5108017;28;8845;-68
2023/04/14 22:42:45;;;;;;;;;1.00;1.00;;;;;;;;5109627;28;8951;-69
2023/04/14 22:45:10;;;;;;;;;1.00;1.00;;;;;;;;5109729;28;8841;-69
2023/04/14 22:47:35;;;;;;;;;2.00;1.00;;;;;;;;5109734;28;8924;-70
2023/04/14 22:50:01;;;;;;;;;2.00;0.00;;;;;;;;5109760;27;8814;-69
2023/04/14 22:52:29;;;;;;;;;1.50;1.00;;;;;;;;5108299;28;8944;-70
2023/04/14 22:54:54;;;;;;;;;6.25;1.75;;;;;;;;5108099;28;8849;-69
2023/04/14 22:57:20;;;;;;;;;1.00;1.00;;;;;;;;5108838;28;11481;-69
2023/04/14 22:59:46;;;;;;;;;4.75;2.00;;;;;;;;5108010;28;8806;-69
2023/04/14 23:02:11;;;;;;;;;4.00;1.00;;;;;;;;5109299;28;8781;-69
2023/04/14 23:04:37;;;;;;;;;2.00;1.25;;;;;;;;5109426;28;8959;-69
2023/04/14 23:07:03;;;;;;;;;5.50;1.75;;;;;;;;5109427;28;8789;-69
2023/04/14 23:09:29;;;;;;;;;7.00;3.00;;;;;;;;5109387;28;8805;-68
2023/04/14 23:11:55;;;;;;;;;2.50;1.00;;;;;;;;5109174;28;8805;-69
2023/04/14 23:14:21;;;;;;;;;2.00;1.00;;;;;;;;5108779;28;11485;-69
2023/04/14 23:16:46;;;;;;;;;1.00;1.00;;;;;;;;5109258;28;8796;-69
2023/04/14 23:19:12;;;;;;;;;4.00;2.00;;;;;;;;5109381;28;8809;-69
2023/04/14 23:21:37;;;;;;;;;1.00;1.00;;;;;;;;5109268;28;8801;-69
2023/04/14 23:24:03;;;;;;;;;0.00;0.00;;;;;;;;5109112;28;8797;-69
2023/04/14 23:26:28;;;;;;;;;4.50;0.50;;;;;;;;5109106;28;8943;-68
2023/04/14 23:28:53;;;;;;;;;1.50;1.50;;;;;;;;5109350;28;9543;-69
2023/04/14 23:31:18;;;;;;;;;5.00;1.00;;;;;;;;5108644;28;9567;-69
2023/04/14 23:33:47;;;;;;;;;4.00;1.25;;;;;;;;5108907;28;8835;-69
2023/04/14 23:36:12;;;;;;;;;4.00;1.00;;;;;;;;5111119;28;8801;-69
2023/04/14 23:38:38;;;;;;;;;0.50;0.00;;;;;;;;5128911;27;11439;-69
2023/04/14 23:41:03;;;;;;;;;1.25;0.25;;;;;;;;5111712;28;8805;-69
2023/04/14 23:43:29;;;;;;;;;2.00;0.00;;;;;;;;5113073;28;8923;-69
2023/04/14 23:45:54;;;;;;;;;1.50;0.00;;;;;;;;5113337;28;9668;-68
2023/04/14 23:48:19;;;;;;;;;0.00;0.00;;;;;;;;5113045;28;9080;-69
2023/04/14 23:50:45;;;;;;;;;5.00;1.00;;;;;;;;5112479;28;8797;-69
2023/04/14 23:53:10;;;;;;;;;1.00;0.00;;;;;;;;5111338;28;8955;-70
2023/04/14 23:55:36;;;;;;;;;0.50;0.00;;;;;;;;5112640;28;8943;-69
2023/04/14 23:58:01;;;;;;;;;2.00;0.75;;;;;;;;5112842;28;8801;-69
